createdAt,value
2018-05-10T00:01:07.920Z,59.90
2018-05-10T00:03:36.158Z,59.90
2018-05-10T00:06:04.397Z,59.60
2018-05-10T00:08:33.390Z,60.40
2018-05-10T00:11:02.402Z,61.00
2018-05-10T00:13:30.642Z,60.20
2018-05-10T00:15:58.865Z,60.20
2018-05-10T00:18:27.109Z,60.20
2018-05-10T00:20:56.105Z,60.50
2018-05-10T00:23:25.122Z,60.50
2018-05-10T00:25:53.386Z,60.40
2018-05-10T00:28:22.383Z,59.80
2018-05-10T00:30:50.633Z,59.70
2018-05-10T00:33:18.872Z,59.60
2018-05-10T00:35:47.133Z,59.50
2018-05-10T00:38:15.362Z,59.50
2018-05-10T00:40:43.688Z,59.50
2018-05-10T00:43:11.930Z,59.60
2018-05-10T00:45:40.929Z,59.90
2018-05-10T00:48:09.182Z,59.80
2018-05-10T00:50:37.415Z,59.80
2018-05-10T00:53:05.671Z,60.00
2018-05-10T00:55:33.902Z,60.00
2018-05-10T00:58:02.138Z,60.10
2018-05-10T01:00:30.374Z,60.40
2018-05-10T01:02:59.388Z,60.70
2018-05-10T01:05:27.621Z,60.70
2018-05-10T01:07:57.378Z,61.00
2018-05-10T01:10:25.605Z,61.00
2018-05-10T01:12:53.849Z,60.90
2018-05-10T01:15:22.082Z,61.40
2018-05-10T01:17:51.103Z,61.10
2018-05-10T01:20:19.364Z,61.10
2018-05-10T01:22:47.597Z,61.00
2018-05-10T01:25:15.833Z,61.30
2018-05-10T01:27:44.069Z,61.20
2018-05-10T01:30:13.074Z,61.10
2018-05-10T01:32:42.078Z,60.90
2018-05-10T01:35:27.898Z,60.90
2018-05-10T01:37:56.150Z,61.20
2018-05-10T01:40:24.382Z,61.20
2018-05-10T01:42:52.613Z,61.20
2018-05-10T01:45:21.058Z,61.20
2018-05-10T01:47:50.065Z,60.90
2018-05-10T01:50:18.298Z,60.80
2018-05-10T01:52:47.387Z,61.10
2018-05-10T01:55:15.624Z,61.10
2018-05-10T01:57:43.858Z,60.90
2018-05-10T02:00:12.866Z,60.80
2018-05-10T02:02:41.133Z,60.80
2018-05-10T02:05:10.131Z,60.80
2018-05-10T02:07:39.141Z,60.60
2018-05-10T02:10:07.377Z,60.50
2018-05-10T02:12:35.608Z,61.20
2018-05-10T02:15:03.853Z,61.80
2018-05-10T02:17:32.093Z,61.80
2018-05-10T02:20:00.325Z,61.80
2018-05-10T02:22:28.574Z,62.20
2018-05-10T02:24:57.589Z,62.60
2018-05-10T02:27:25.818Z,62.50
2018-05-10T02:29:54.078Z,62.80
2018-05-10T02:32:22.316Z,62.60
2018-05-10T02:34:51.627Z,62.60
2018-05-10T02:37:19.846Z,62.60
2018-05-10T02:39:48.079Z,62.20
2018-05-10T02:42:16.318Z,62.10
2018-05-10T02:44:45.322Z,61.60
2018-05-10T02:47:13.578Z,61.50
2018-05-10T02:49:41.907Z,62.40
2018-05-10T02:52:10.046Z,62.70
2018-05-10T02:54:39.051Z,63.00
2018-05-10T02:57:07.285Z,62.90
2018-05-10T02:59:35.530Z,63.20
2018-05-10T03:02:03.776Z,63.10
2018-05-10T03:04:32.022Z,63.20
2018-05-10T03:07:01.032Z,64.00
2018-05-10T03:09:30.033Z,63.80
2018-05-10T03:11:59.031Z,63.20
2018-05-10T03:14:27.262Z,63.20
2018-05-10T03:16:55.509Z,63.20
2018-05-10T03:19:23.742Z,63.30
2018-05-10T03:21:52.750Z,63.20
2018-05-10T03:24:20.985Z,63.10
2018-05-10T03:26:49.290Z,63.80
2018-05-10T03:29:18.303Z,63.10
2018-05-10T03:31:46.538Z,63.00
2018-05-10T03:34:14.778Z,63.10
2018-05-10T03:36:43.010Z,63.00
2018-05-10T03:39:11.281Z,63.00
2018-05-10T03:41:40.355Z,62.90
2018-05-10T03:44:08.550Z,62.90
2018-05-10T03:46:37.550Z,63.10
2018-05-10T03:49:05.781Z,63.10
2018-05-10T03:51:34.297Z,63.20
2018-05-10T03:54:03.294Z,64.00
2018-05-10T03:56:32.293Z,63.90
2018-05-10T03:59:00.538Z,63.90
2018-05-10T04:01:28.772Z,64.00
2018-05-10T04:07:26.240Z,63.70
2018-05-10T04:10:12.339Z,63.50
2018-05-10T04:12:40.589Z,63.20
2018-05-10T04:15:08.837Z,63.20
2018-05-10T04:17:37.077Z,63.00
2018-05-10T04:20:05.309Z,63.20
2018-05-10T04:22:34.322Z,62.80
2018-05-10T04:25:02.569Z,62.80
2018-05-10T04:27:31.578Z,62.60
2018-05-10T04:30:00.603Z,62.60
2018-05-10T04:32:28.841Z,62.60
2018-05-10T04:34:57.842Z,62.60
2018-05-10T04:37:26.858Z,62.90
2018-05-10T04:39:55.081Z,62.80
2018-05-10T04:42:23.313Z,62.80
2018-05-10T04:44:51.557Z,62.80
2018-05-10T04:47:20.553Z,62.90
2018-05-10T04:49:49.566Z,62.90
2018-05-10T04:52:17.822Z,62.70
2018-05-10T04:54:46.836Z,63.10
2018-05-10T04:57:15.066Z,62.90
2018-05-10T04:59:43.367Z,62.70
2018-05-10T05:02:12.361Z,62.60
2018-05-10T05:04:40.594Z,62.40
2018-05-10T05:07:08.845Z,62.50
2018-05-10T05:09:37.077Z,62.50
2018-05-10T05:12:06.093Z,62.00
2018-05-10T05:14:34.326Z,62.00
2018-05-10T05:17:03.368Z,61.80
2018-05-10T05:19:31.608Z,61.80
2018-05-10T05:22:00.610Z,60.90
2018-05-10T05:24:30.014Z,60.20
2018-05-10T05:26:59.077Z,60.10
2018-05-10T05:29:27.253Z,60.00
2018-05-10T05:31:55.505Z,59.70
2018-05-10T05:34:23.739Z,59.50
2018-05-10T05:36:52.825Z,59.10
2018-05-10T05:39:21.830Z,58.40
2018-05-10T05:41:50.069Z,58.30
2018-05-10T05:44:18.322Z,59.10
2018-05-10T05:46:46.898Z,59.20
2018-05-10T05:49:15.853Z,59.50
2018-05-10T05:51:44.854Z,59.10
2018-05-10T05:54:13.104Z,59.10
2018-05-10T05:56:42.110Z,58.40
2018-05-10T05:59:11.117Z,58.60
2018-05-10T06:01:39.350Z,58.50
2018-05-10T06:04:07.598Z,58.70
2018-05-10T06:06:35.829Z,58.60
2018-05-10T06:09:07.900Z,58.70
2018-05-10T06:11:36.894Z,58.70
2018-05-10T06:14:05.126Z,58.60
2018-05-10T06:16:33.370Z,58.70
2018-05-10T06:19:01.618Z,58.70
2018-05-10T06:21:30.635Z,58.80
2018-05-10T06:23:58.881Z,58.80
2018-05-10T06:26:27.895Z,58.30
2018-05-10T06:28:56.127Z,58.30
2018-05-10T06:31:24.430Z,58.00
2018-05-10T06:33:53.447Z,57.80
2018-05-10T06:36:22.426Z,57.30
2018-05-10T06:38:50.674Z,57.30
2018-05-10T06:41:18.902Z,57.60
2018-05-10T06:43:47.444Z,57.00
2018-05-10T06:46:16.444Z,56.90
2018-05-10T06:48:45.446Z,56.70
2018-05-10T06:51:13.694Z,56.70
2018-05-10T06:53:42.706Z,56.40
2018-05-10T06:56:11.702Z,55.90
2018-05-10T06:58:39.952Z,55.80
2018-05-10T07:01:08.250Z,55.10
2018-05-10T07:03:37.262Z,54.90
2018-05-10T07:06:05.510Z,54.90
2018-05-10T07:08:34.532Z,54.60
2018-05-10T07:11:02.771Z,54.50
2018-05-10T07:13:31.018Z,54.70
2018-05-10T07:15:59.258Z,54.40
2018-05-10T07:18:27.501Z,54.20
2018-05-10T07:20:56.498Z,53.90
2018-05-10T07:23:25.525Z,53.00
2018-05-10T07:25:53.761Z,52.90
2018-05-10T07:28:22.783Z,53.50
2018-05-10T07:30:51.968Z,52.20
2018-05-10T07:33:21.062Z,52.10
2018-05-10T07:35:49.298Z,52.10
2018-05-10T07:38:17.541Z,50.70
2018-05-10T07:40:45.819Z,49.90
2018-05-10T07:43:14.009Z,49.10
2018-05-10T07:45:42.256Z,49.30
2018-05-10T07:48:10.817Z,49.50
2018-05-10T07:50:39.817Z,50.90
2018-05-10T07:53:08.128Z,50.90
2018-05-10T07:55:36.293Z,50.70
2018-05-10T07:58:04.528Z,51.10
2018-05-10T08:00:33.729Z,51.20
2018-05-10T08:03:02.729Z,50.80
2018-05-10T08:05:31.733Z,50.90
2018-05-10T08:07:59.977Z,50.80
2018-05-10T08:10:28.432Z,50.90
2018-05-10T08:12:56.675Z,50.90
2018-05-10T08:15:24.917Z,50.80
2018-05-10T08:17:53.997Z,49.90
2018-05-10T08:20:22.214Z,49.80
2018-05-10T08:22:50.453Z,48.60
2018-05-10T08:25:18.698Z,49.00
2018-05-10T08:27:46.933Z,49.40
2018-05-10T08:30:15.189Z,50.00
2018-05-10T08:32:43.425Z,50.00
2018-05-10T08:35:11.857Z,49.60
2018-05-10T08:37:40.853Z,51.40
2018-05-10T08:40:09.083Z,51.30
2018-05-10T08:42:37.352Z,51.70
2018-05-10T08:45:05.603Z,52.20
2018-05-10T08:47:33.834Z,53.10
2018-05-10T08:50:02.841Z,53.60
2018-05-10T08:52:31.937Z,54.00
2018-05-10T08:55:00.937Z,52.30
2018-05-10T08:57:29.186Z,52.30
2018-05-10T08:59:57.501Z,51.80
2018-05-10T09:02:25.664Z,51.60
2018-05-10T09:04:54.662Z,50.30
2018-05-10T09:07:22.954Z,50.30
2018-05-10T09:09:51.921Z,48.60
2018-05-10T09:12:20.173Z,48.60
2018-05-10T09:14:48.422Z,48.90
2018-05-10T09:17:16.661Z,48.50
2018-05-10T09:19:44.895Z,47.60
2018-05-10T09:22:13.121Z,46.80
2018-05-10T09:24:41.363Z,45.90
2018-05-10T09:27:10.370Z,47.80
2018-05-10T09:29:39.374Z,46.10
2018-05-10T09:32:07.613Z,46.00
2018-05-10T09:34:36.617Z,45.40
2018-05-10T09:37:05.610Z,44.90
2018-05-10T09:39:34.762Z,45.10
2018-05-10T09:42:02.954Z,45.00
2018-05-10T09:44:31.194Z,45.70
2018-05-10T09:46:59.638Z,45.30
2018-05-10T09:49:28.664Z,45.00
2018-05-10T09:51:56.894Z,45.00
2018-05-10T09:54:25.148Z,44.00
2018-05-10T09:56:53.437Z,43.70
2018-05-10T09:59:21.685Z,44.20
2018-05-10T10:01:49.913Z,43.30
2018-05-10T10:04:18.925Z,42.10
2018-05-10T10:06:47.158Z,41.50
2018-05-10T10:09:15.408Z,41.20
2018-05-10T10:11:43.716Z,41.60
2018-05-10T10:14:11.879Z,41.80
2018-05-10T10:16:40.126Z,42.30
2018-05-10T10:19:08.364Z,43.10
2018-05-10T10:21:37.389Z,41.40
2018-05-10T10:24:05.629Z,41.30
2018-05-10T10:26:34.630Z,41.50
2018-05-10T10:29:02.878Z,41.40
2018-05-10T10:31:31.106Z,41.50
2018-05-10T10:33:59.373Z,42.10
2018-05-10T10:36:27.602Z,42.80
2018-05-10T10:38:55.846Z,42.90
2018-05-10T10:41:24.104Z,41.70
2018-05-10T10:43:52.346Z,40.90
2018-05-10T10:46:21.350Z,41.80
2018-05-10T10:48:50.366Z,41.20
2018-05-10T10:51:18.612Z,41.10
2018-05-10T10:53:47.656Z,42.00
2018-05-10T10:56:16.905Z,42.40
2018-05-10T10:58:45.911Z,43.00
2018-05-10T11:01:14.147Z,43.00
2018-05-10T11:03:42.394Z,42.80
2018-05-10T11:06:10.645Z,42.60
2018-05-10T11:08:38.890Z,42.00
2018-05-10T11:11:07.919Z,43.70
2018-05-10T11:13:36.149Z,43.50
2018-05-10T11:16:04.373Z,43.90
2018-05-10T11:18:32.619Z,43.90
2018-05-10T11:21:01.625Z,44.80
2018-05-10T11:23:29.878Z,44.80
2018-05-10T11:25:59.190Z,43.20
2018-05-10T11:28:27.421Z,43.20
2018-05-10T11:30:55.658Z,43.50
2018-05-10T11:33:24.118Z,40.90
2018-05-10T11:35:53.114Z,38.70
2018-05-10T11:38:21.357Z,38.60
2018-05-10T11:40:49.591Z,40.60
2018-05-10T11:43:17.838Z,41.90
2018-05-10T11:45:46.852Z,43.10
2018-05-10T11:48:15.097Z,43.10
2018-05-10T11:50:44.094Z,43.10
2018-05-10T11:53:13.101Z,43.90
2018-05-10T11:55:41.336Z,44.00
2018-05-10T11:58:10.350Z,44.00
2018-05-10T12:00:39.347Z,44.60
2018-05-10T12:03:08.349Z,44.50
2018-05-10T12:05:36.603Z,44.50
2018-05-10T12:08:04.834Z,45.20
2018-05-10T12:10:33.090Z,45.50
2018-05-10T12:13:01.330Z,46.30
2018-05-10T12:15:29.562Z,45.40
2018-05-10T12:17:57.928Z,45.40
2018-05-10T12:20:26.172Z,44.60
2018-05-10T12:25:29.751Z,44.80
2018-05-10T12:27:57.962Z,46.20
2018-05-10T12:30:27.038Z,47.40
2018-05-10T12:32:55.222Z,47.30
2018-05-10T12:35:24.253Z,46.60
2018-05-10T12:37:52.477Z,46.60
2018-05-10T12:40:20.721Z,46.70
2018-05-10T12:42:48.950Z,46.90
2018-05-10T12:45:17.949Z,45.10
2018-05-10T12:47:47.046Z,43.70
2018-05-10T12:50:16.050Z,43.30
2018-05-10T12:52:44.418Z,43.30
2018-05-10T12:55:13.414Z,44.00
2018-05-10T12:57:41.646Z,44.00
2018-05-10T13:00:09.895Z,44.40
2018-05-10T13:02:38.138Z,45.20
2018-05-10T13:05:07.158Z,45.70
2018-05-10T13:07:35.401Z,45.60
2018-05-10T13:10:04.426Z,46.30
2018-05-10T13:12:32.666Z,46.30
2018-05-10T13:15:01.671Z,45.20
2018-05-10T13:17:29.908Z,45.20
2018-05-10T13:19:58.149Z,45.30
2018-05-10T13:22:26.394Z,45.60
2018-05-10T13:24:55.419Z,44.50
2018-05-10T13:27:23.749Z,44.50
2018-05-10T13:29:52.851Z,43.70
2018-05-10T13:32:21.857Z,42.80
2018-05-10T13:34:50.132Z,42.80
2018-05-10T13:37:18.388Z,42.10
2018-05-10T13:39:47.619Z,41.00
2018-05-10T13:42:15.849Z,41.00
2018-05-10T13:44:44.102Z,41.90
2018-05-10T13:47:12.426Z,43.40
2018-05-10T13:49:40.602Z,41.50
2018-05-10T13:52:09.602Z,42.90
2018-05-10T13:54:37.846Z,42.90
2018-05-10T13:57:06.478Z,43.70
2018-05-10T13:59:34.697Z,43.10
2018-05-10T14:02:02.938Z,43.10
2018-05-10T14:04:31.274Z,43.20
2018-05-10T14:06:59.418Z,42.90
2018-05-10T14:09:27.646Z,42.80
2018-05-10T14:11:55.889Z,42.00
2018-05-10T14:14:24.893Z,43.60
2018-05-10T14:16:53.903Z,43.20
2018-05-10T14:19:22.190Z,43.20
2018-05-10T14:21:50.446Z,42.90
2018-05-10T14:24:19.542Z,42.60
2018-05-10T14:26:47.779Z,42.60
2018-05-10T14:29:16.028Z,44.20
2018-05-10T14:31:44.277Z,45.20
2018-05-10T14:34:12.530Z,45.10
2018-05-10T14:36:41.530Z,45.60
2018-05-10T14:39:10.546Z,45.80
2018-05-10T14:41:38.790Z,45.80
2018-05-10T14:44:07.803Z,45.20
2018-05-10T14:46:36.037Z,45.10
2018-05-10T14:49:05.054Z,45.40
2018-05-10T14:51:34.057Z,45.60
2018-05-10T14:54:03.153Z,45.70
2018-05-10T14:56:31.290Z,45.70
2018-05-10T14:58:59.539Z,46.20
2018-05-10T15:01:27.785Z,46.10
2018-05-10T15:03:56.040Z,45.30
2018-05-10T15:06:24.274Z,45.00
2018-05-10T15:08:52.636Z,45.20
2018-05-10T15:11:20.866Z,45.10
2018-05-10T15:13:50.178Z,45.80
2018-05-10T15:16:19.186Z,46.20
2018-05-10T15:18:48.173Z,46.10
2018-05-10T15:21:16.450Z,46.00
2018-05-10T15:23:44.706Z,46.40
2018-05-10T15:26:13.705Z,47.10
2018-05-10T15:28:42.711Z,46.60
2018-05-10T15:31:10.955Z,46.50
2018-05-10T15:33:39.185Z,46.60
2018-05-10T15:36:07.433Z,46.90
2018-05-10T15:38:35.898Z,46.70
2018-05-10T15:41:04.906Z,47.30
2018-05-10T15:43:33.957Z,46.60
2018-05-10T15:46:02.197Z,46.60
2018-05-10T15:48:30.429Z,46.90
2018-05-10T15:50:58.665Z,46.70
2018-05-10T15:53:26.933Z,47.10
2018-05-10T15:55:55.158Z,47.40
2018-05-10T15:58:25.209Z,47.80
2018-05-10T16:00:53.439Z,47.70
2018-05-10T16:03:21.667Z,47.90
2018-05-10T16:05:49.910Z,48.30
2018-05-10T16:08:18.905Z,48.80
2018-05-10T16:10:47.924Z,48.90
2018-05-10T16:13:16.153Z,48.90
2018-05-10T16:15:44.413Z,48.80
2018-05-10T16:18:12.653Z,48.70
2018-05-10T16:20:40.882Z,48.50
2018-05-10T16:23:09.126Z,48.90
2018-05-10T16:25:37.397Z,48.40
2018-05-10T16:28:05.646Z,48.30
2018-05-10T16:30:33.898Z,48.10
2018-05-10T16:33:02.897Z,48.40
2018-05-10T16:35:31.910Z,48.80
2018-05-10T16:38:00.144Z,48.80
2018-05-10T16:40:29.157Z,50.00
2018-05-10T16:42:58.170Z,50.00
2018-05-10T16:45:26.416Z,50.00
2018-05-10T16:47:54.666Z,49.70
2018-05-10T16:50:22.920Z,50.10
2018-05-10T16:52:51.155Z,50.80
2018-05-10T16:55:20.178Z,51.00
2018-05-10T16:57:48.456Z,51.00
2018-05-10T17:00:16.693Z,51.20
2018-05-10T17:02:46.734Z,51.70
2018-05-10T17:05:14.970Z,51.70
2018-05-10T17:07:43.202Z,51.70
2018-05-10T17:10:11.750Z,52.10
2018-05-10T17:12:40.745Z,52.70
2018-05-10T17:15:09.746Z,52.90
2018-05-10T17:17:37.987Z,52.90
2018-05-10T17:20:06.234Z,53.00
2018-05-10T17:22:34.870Z,53.00
2018-05-10T17:25:03.870Z,53.40
2018-05-10T17:27:32.888Z,53.60
2018-05-10T17:30:01.127Z,53.60
2018-05-10T17:32:30.169Z,54.00
2018-05-10T17:34:58.422Z,54.00
2018-05-10T17:37:26.655Z,54.50
2018-05-10T17:39:54.906Z,55.10
2018-05-10T17:42:23.161Z,55.50
2018-05-10T17:44:51.389Z,56.00
2018-05-10T17:47:19.632Z,56.10
2018-05-10T17:49:47.869Z,57.10
2018-05-10T17:52:16.102Z,56.80
2018-05-10T17:54:44.338Z,57.00
2018-05-10T17:57:12.579Z,57.30
2018-05-10T17:59:41.579Z,57.30
2018-05-10T18:02:10.591Z,57.80
2018-05-10T18:04:38.851Z,57.70
2018-05-10T18:07:07.844Z,58.30
2018-05-10T18:09:36.100Z,58.30
2018-05-10T18:12:04.335Z,58.40
2018-05-10T18:14:32.580Z,58.70
2018-05-10T18:17:00.814Z,58.70
2018-05-10T18:19:29.046Z,58.80
2018-05-10T18:21:57.318Z,58.90
2018-05-10T18:24:25.573Z,59.00
2018-05-10T18:26:54.587Z,59.20
2018-05-10T18:29:22.825Z,59.20
2018-05-10T18:31:51.830Z,59.80
2018-05-10T18:34:20.858Z,60.00
2018-05-10T18:36:49.094Z,60.00
2018-05-10T18:39:18.106Z,60.60
2018-05-10T18:41:46.351Z,60.60
2018-05-10T18:44:15.363Z,61.40
2018-05-10T18:46:44.390Z,61.20
2018-05-10T18:49:12.642Z,61.20
2018-05-10T18:51:40.899Z,61.80
2018-05-10T18:54:09.927Z,63.00
2018-05-10T18:56:38.153Z,63.00
2018-05-10T18:59:06.386Z,63.30
2018-05-10T19:01:34.916Z,63.50
2018-05-10T19:04:03.098Z,63.70
2018-05-10T19:06:32.094Z,66.00
2018-05-10T19:09:01.349Z,69.10
2018-05-10T19:11:29.590Z,69.10
2018-05-10T19:13:57.817Z,70.60
2018-05-10T19:16:26.062Z,72.00
2018-05-10T19:18:54.320Z,73.10
2018-05-10T19:21:22.561Z,74.20
2018-05-10T19:23:50.877Z,75.30
2018-05-10T19:26:19.055Z,76.70
2018-05-10T19:28:47.278Z,76.60
2018-05-10T19:31:15.532Z,77.10
2018-05-10T19:33:43.764Z,77.70
2018-05-10T19:36:12.004Z,77.80
2018-05-10T19:38:40.246Z,78.20
2018-05-10T19:41:08.480Z,76.60
2018-05-10T19:43:37.474Z,73.20
2018-05-10T19:46:05.772Z,73.10
2018-05-10T19:48:34.011Z,73.10
2018-05-10T19:51:03.005Z,73.90
2018-05-10T19:53:32.020Z,74.60
2018-05-10T19:56:00.262Z,74.50
2018-05-10T19:58:28.502Z,75.10
2018-05-10T20:00:56.733Z,74.60
2018-05-10T20:03:25.743Z,73.90
2018-05-10T20:05:53.975Z,73.80
2018-05-10T20:08:22.218Z,74.20
2018-05-10T20:10:50.454Z,72.90
2018-05-10T20:13:18.702Z,72.90
2018-05-10T20:15:46.941Z,73.60
2018-05-10T20:18:15.173Z,73.60
2018-05-10T20:20:44.185Z,73.40
2018-05-10T20:23:12.422Z,73.40
2018-05-10T20:25:40.653Z,73.50
2018-05-10T20:28:09.102Z,73.60
2018-05-10T20:30:38.202Z,75.00
2018-05-10T20:33:06.438Z,75.00
2018-05-10T20:35:34.909Z,75.80
2018-05-10T20:38:03.141Z,75.90
2018-05-10T20:40:31.400Z,75.20
2018-05-10T20:43:00.399Z,76.10
2018-05-10T20:45:29.394Z,75.60
2018-05-10T20:47:57.645Z,75.40
2018-05-10T20:50:25.885Z,76.00
2018-05-10T20:52:54.137Z,75.40
2018-05-10T20:55:22.373Z,76.10
2018-05-10T20:57:50.622Z,76.20
2018-05-10T21:00:18.868Z,75.30
2018-05-10T21:02:47.086Z,75.60
2018-05-10T21:05:15.329Z,75.40
2018-05-10T21:07:43.570Z,75.30
2018-05-10T21:10:11.815Z,75.60
2018-05-10T21:12:43.269Z,75.40
2018-05-10T21:15:11.494Z,75.70
2018-05-10T21:17:39.846Z,75.60
2018-05-10T21:20:08.859Z,76.50
2018-05-10T21:22:37.118Z,76.50
2018-05-10T21:25:05.390Z,76.40
2018-05-10T21:27:34.389Z,75.70
2018-05-10T21:30:02.626Z,75.60
2018-05-10T21:32:30.938Z,75.30
2018-05-10T21:34:59.169Z,75.70
2018-05-10T21:37:27.413Z,75.20
2018-05-10T21:39:55.657Z,75.20
2018-05-10T21:42:24.658Z,73.00
2018-05-10T21:44:53.666Z,72.30
2018-05-10T21:47:21.901Z,72.20
2018-05-10T21:50:09.273Z,72.20
2018-05-10T21:52:37.513Z,72.70
2018-05-10T21:55:06.529Z,72.60
2018-05-10T21:57:35.913Z,73.10
2018-05-10T22:00:05.014Z,73.40
2018-05-10T22:02:34.110Z,73.80
2018-05-10T22:05:03.123Z,74.10
2018-05-10T22:07:31.378Z,74.00
2018-05-10T22:10:00.386Z,74.50
2018-05-10T22:12:28.986Z,74.40
2018-05-10T22:14:57.954Z,73.90
2018-05-10T22:17:26.196Z,73.70
2018-05-10T22:19:54.444Z,73.80
2018-05-10T22:22:22.682Z,73.90
2018-05-10T22:24:51.153Z,73.10
2018-05-10T22:27:20.150Z,73.80
2018-05-10T22:29:48.386Z,73.70
2018-05-10T22:32:16.626Z,73.40
2018-05-10T22:34:44.858Z,74.20
2018-05-10T22:37:13.870Z,74.40
2018-05-10T22:39:42.102Z,74.30
2018-05-10T22:42:10.339Z,74.80
2018-05-10T22:44:38.589Z,75.00
2018-05-10T22:47:07.598Z,75.40
2018-05-10T22:49:35.845Z,75.20
2018-05-10T22:52:04.859Z,75.90
2018-05-10T22:54:33.101Z,75.90
2018-05-10T22:57:01.352Z,75.90
2018-05-10T22:59:29.610Z,76.60
2018-05-10T23:01:57.842Z,76.90
2018-05-10T23:04:26.855Z,78.10
2018-05-10T23:06:55.869Z,78.30
2018-05-10T23:09:24.116Z,78.30
2018-05-10T23:11:53.125Z,78.50
2018-05-10T23:16:55.854Z,79.50
2018-05-10T23:19:24.181Z,79.20
2018-05-10T23:21:53.288Z,80.50
2018-05-10T23:24:22.277Z,80.10
2018-05-10T23:26:50.508Z,80.00
2018-05-10T23:29:18.765Z,80.10
2018-05-10T23:31:46.989Z,80.40
2018-05-10T23:34:16.095Z,81.80
2018-05-10T23:36:45.106Z,81.90
2018-05-10T23:39:13.337Z,81.90
2018-05-10T23:41:41.581Z,82.40
2018-05-10T23:44:09.830Z,82.50
2018-05-10T23:46:38.058Z,83.00
2018-05-10T23:49:06.302Z,83.20
2018-05-10T23:51:34.541Z,82.70
2018-05-10T23:54:03.533Z,83.20
2018-05-10T23:56:31.777Z,83.00
2018-05-10T23:59:00.285Z,83.00
